sensor_id;sensor_type;location;lat;lon;timestamp;pressure;altitude;pressure_sealevel;temperature;humidity
15880;BME280;61999;51.514;14.614;2022-12-18T00:00:07;101616.38;;;-8.29;58.13
15880;BME280;61999;51.514;14.614;2022-12-18T00:02:35;101618.03;;;-7.56;56.35
15880;BME280;61999;51.514;14.614;2022-12-18T00:05:04;101618.19;;;-8.25;57.67
15880;BME280;61999;51.514;14.614;2022-12-18T00:07:32;101617.56;;;-8.50;58.43
15880;BME280;61999;51.514;14.614;2022-12-18T00:10:00;101622.97;;;-7.65;56.46
15880;BME280;61999;51.514;14.614;2022-12-18T00:12:29;101625.13;;;-7.42;54.42
15880;BME280;61999;51.514;14.614;2022-12-18T00:14:57;101630.25;;;-6.98;54.29
15880;BME280;61999;51.514;14.614;2022-12-18T00:17:25;101627.66;;;-7.01;52.91
15880;BME280;61999;51.514;14.614;2022-12-18T00:19:53;101637.31;;;-6.88;53.38
15880;BME280;61999;51.514;14.614;2022-12-18T00:22:21;101626.09;;;-6.45;52.21
15880;BME280;61999;51.514;14.614;2022-12-18T00:24:49;101640.25;;;-6.17;50.79
15880;BME280;61999;51.514;14.614;2022-12-18T00:27:17;101642.72;;;-6.20;50.66
15880;BME280;61999;51.514;14.614;2022-12-18T00:29:48;101642.06;;;-7.08;52.59
15880;BME280;61999;51.514;14.614;2022-12-18T00:32:16;101648.66;;;-7.98;55.06
15880;BME280;61999;51.514;14.614;2022-12-18T00:34:44;101641.69;;;-7.66;55.84
15880;BME280;61999;51.514;14.614;2022-12-18T00:37:12;101640.53;;;-7.41;54.82
15880;BME280;61999;51.514;14.614;2022-12-18T00:39:44;101641.38;;;-6.99;54.66
15880;BME280;61999;51.514;14.614;2022-12-18T00:42:12;101641.91;;;-7.57;54.69
15880;BME280;61999;51.514;14.614;2022-12-18T00:44:59;101644.47;;;-7.94;55.56
15880;BME280;61999;51.514;14.614;2022-12-18T00:47:27;101650.28;;;-7.23;54.91
15880;BME280;61999;51.514;14.614;2022-12-18T00:49:55;101645.44;;;-6.64;52.97
15880;BME280;61999;51.514;14.614;2022-12-18T00:52:22;101645.28;;;-6.20;51.89
15880;BME280;61999;51.514;14.614;2022-12-18T00:54:50;101648.19;;;-6.00;51.15
15880;BME280;61999;51.514;14.614;2022-12-18T00:57:18;101645.84;;;-5.84;50.10
15880;BME280;61999;51.514;14.614;2022-12-18T00:59:46;101648.59;;;-5.74;49.65
15880;BME280;61999;51.514;14.614;2022-12-18T01:02:16;101645.28;;;-5.65;49.85
15880;BME280;61999;51.514;14.614;2022-12-18T01:04:44;101648.81;;;-5.55;49.41
15880;BME280;61999;51.514;14.614;2022-12-18T01:07:12;101645.47;;;-5.48;49.45
15880;BME280;61999;51.514;14.614;2022-12-18T01:09:40;101650.53;;;-5.54;49.12
15880;BME280;61999;51.514;14.614;2022-12-18T01:12:08;101650.63;;;-5.48;49.27
15880;BME280;61999;51.514;14.614;2022-12-18T01:14:36;101647.34;;;-5.39;49.09
15880;BME280;61999;51.514;14.614;2022-12-18T01:17:04;101655.09;;;-5.35;48.81
15880;BME280;61999;51.514;14.614;2022-12-18T01:19:34;101649.09;;;-5.34;49.01
15880;BME280;61999;51.514;14.614;2022-12-18T01:22:02;101644.88;;;-5.30;48.90
15880;BME280;61999;51.514;14.614;2022-12-18T01:24:30;101651.00;;;-6.39;49.99
15880;BME280;61999;51.514;14.614;2022-12-18T01:26:58;101654.25;;;-5.95;50.35
15880;BME280;61999;51.514;14.614;2022-12-18T01:29:26;101658.69;;;-5.83;49.86
15880;BME280;61999;51.514;14.614;2022-12-18T01:31:55;101658.88;;;-5.72;49.70
15880;BME280;61999;51.514;14.614;2022-12-18T01:34:24;101664.28;;;-7.48;52.24
15880;BME280;61999;51.514;14.614;2022-12-18T01:36:53;101669.78;;;-8.40;56.48
15880;BME280;61999;51.514;14.614;2022-12-18T01:39:21;101670.16;;;-8.26;57.38
15880;BME280;61999;51.514;14.614;2022-12-18T01:41:49;101671.03;;;-7.11;54.14
15880;BME280;61999;51.514;14.614;2022-12-18T01:44:57;101670.47;;;-6.49;52.39
15880;BME280;61999;51.514;14.614;2022-12-18T01:47:32;101663.44;;;-6.10;50.73
15880;BME280;61999;51.514;14.614;2022-12-18T01:50:05;101664.59;;;-5.90;50.01
15880;BME280;61999;51.514;14.614;2022-12-18T01:52:37;101677.72;;;-7.58;53.26
15880;BME280;61999;51.514;14.614;2022-12-18T01:55:11;101673.56;;;-7.53;54.69
15880;BME280;61999;51.514;14.614;2022-12-18T01:57:41;101676.84;;;-7.18;53.74
15880;BME280;61999;51.514;14.614;2022-12-18T02:00:14;101678.59;;;-7.17;53.49
15880;BME280;61999;51.514;14.614;2022-12-18T02:02:44;101666.97;;;-6.54;52.10
15880;BME280;61999;51.514;14.614;2022-12-18T02:05:17;101672.63;;;-6.72;51.49
15880;BME280;61999;51.514;14.614;2022-12-18T02:08:02;101675.13;;;-6.28;51.25
15880;BME280;61999;51.514;14.614;2022-12-18T02:10:40;101683.28;;;-6.96;52.53
15880;BME280;61999;51.514;14.614;2022-12-18T02:13:14;101674.78;;;-6.46;50.87
15880;BME280;61999;51.514;14.614;2022-12-18T02:15:58;101673.19;;;-6.41;51.24
15880;BME280;61999;51.514;14.614;2022-12-18T02:18:36;101677.09;;;-6.11;50.39
15880;BME280;61999;51.514;14.614;2022-12-18T02:21:20;101680.31;;;-6.72;51.04
15880;BME280;61999;51.514;14.614;2022-12-18T02:24:08;101674.91;;;-6.40;50.92
15880;BME280;61999;51.514;14.614;2022-12-18T02:26:47;101682.53;;;-6.90;51.63
15880;BME280;61999;51.514;14.614;2022-12-18T02:29:22;101691.78;;;-7.77;53.75
15880;BME280;61999;51.514;14.614;2022-12-18T02:31:57;101692.56;;;-7.02;52.83
15880;BME280;61999;51.514;14.614;2022-12-18T02:34:31;101693.09;;;-6.75;51.53
15880;BME280;61999;51.514;14.614;2022-12-18T02:37:04;101691.75;;;-6.54;51.77
15880;BME280;61999;51.514;14.614;2022-12-18T02:39:37;101689.53;;;-6.34;50.64
15880;BME280;61999;51.514;14.614;2022-12-18T02:42:08;101682.97;;;-6.17;49.83
15880;BME280;61999;51.514;14.614;2022-12-18T02:44:43;101679.50;;;-6.22;50.47
15880;BME280;61999;51.514;14.614;2022-12-18T02:47:13;101678.66;;;-6.20;50.05
15880;BME280;61999;51.514;14.614;2022-12-18T02:49:55;101685.53;;;-6.19;50.14
15880;BME280;61999;51.514;14.614;2022-12-18T02:52:35;101698.38;;;-6.19;50.50
15880;BME280;61999;51.514;14.614;2022-12-18T02:55:26;101700.28;;;-6.07;49.83
15880;BME280;61999;51.514;14.614;2022-12-18T02:58:07;101699.28;;;-6.17;50.38
15880;BME280;61999;51.514;14.614;2022-12-18T03:00:43;101701.66;;;-7.94;54.59
15880;BME280;61999;51.514;14.614;2022-12-18T03:03:24;101714.59;;;-9.16;57.18
15880;BME280;61999;51.514;14.614;2022-12-18T03:06:00;101711.25;;;-10.24;63.45
15880;BME280;61999;51.514;14.614;2022-12-18T03:08:33;101704.09;;;-8.97;60.95
15880;BME280;61999;51.514;14.614;2022-12-18T03:11:07;101699.13;;;-8.26;58.94
15880;BME280;61999;51.514;14.614;2022-12-18T03:13:43;101717.06;;;-9.48;60.77
15880;BME280;61999;51.514;14.614;2022-12-18T03:16:19;101719.16;;;-8.74;59.54
15880;BME280;61999;51.514;14.614;2022-12-18T03:18:56;101708.28;;;-8.35;59.28
15880;BME280;61999;51.514;14.614;2022-12-18T03:21:33;101710.03;;;-7.63;56.32
15880;BME280;61999;51.514;14.614;2022-12-18T03:24:07;101704.34;;;-7.11;54.49
15880;BME280;61999;51.514;14.614;2022-12-18T03:26:41;101700.72;;;-6.79;53.46
15880;BME280;61999;51.514;14.614;2022-12-18T03:29:18;101709.53;;;-6.65;52.37
15880;BME280;61999;51.514;14.614;2022-12-18T03:31:53;101706.31;;;-6.53;51.69
15880;BME280;61999;51.514;14.614;2022-12-18T03:34:27;101705.56;;;-6.93;52.32
15880;BME280;61999;51.514;14.614;2022-12-18T03:36:57;101710.41;;;-7.46;53.19
15880;BME280;61999;51.514;14.614;2022-12-18T03:39:25;101710.13;;;-6.77;52.47
15880;BME280;61999;51.514;14.614;2022-12-18T03:42:00;101708.53;;;-6.72;52.00
15880;BME280;61999;51.514;14.614;2022-12-18T03:44:40;101715.78;;;-6.49;52.09
15880;BME280;61999;51.514;14.614;2022-12-18T03:47:16;101719.63;;;-6.26;50.91
15880;BME280;61999;51.514;14.614;2022-12-18T03:50:00;101713.81;;;-6.14;51.07
15880;BME280;61999;51.514;14.614;2022-12-18T03:52:42;101709.78;;;-6.01;50.47
15880;BME280;61999;51.514;14.614;2022-12-18T03:55:13;101703.94;;;-5.91;50.18
15880;BME280;61999;51.514;14.614;2022-12-18T03:57:44;101704.91;;;-5.83;50.16
15880;BME280;61999;51.514;14.614;2022-12-18T04:00:18;101696.41;;;-5.82;49.74
15880;BME280;61999;51.514;14.614;2022-12-18T04:02:51;101700.72;;;-5.78;49.61
15880;BME280;61999;51.514;14.614;2022-12-18T04:05:22;101698.81;;;-5.91;49.63
15880;BME280;61999;51.514;14.614;2022-12-18T04:07:54;101699.84;;;-7.62;52.96
15880;BME280;61999;51.514;14.614;2022-12-18T04:10:23;101711.13;;;-6.70;51.73
15880;BME280;61999;51.514;14.614;2022-12-18T04:12:55;101705.25;;;-6.65;51.46
15880;BME280;61999;51.514;14.614;2022-12-18T04:15:24;101712.63;;;-6.36;50.76
15880;BME280;61999;51.514;14.614;2022-12-18T04:17:53;101711.06;;;-6.28;50.88
15880;BME280;61999;51.514;14.614;2022-12-18T04:20:21;101712.72;;;-6.30;50.70
15880;BME280;61999;51.514;14.614;2022-12-18T04:22:49;101721.66;;;-6.06;50.18
15880;BME280;61999;51.514;14.614;2022-12-18T04:25:17;101717.44;;;-6.03;49.91
15880;BME280;61999;51.514;14.614;2022-12-18T04:27:45;101720.94;;;-5.99;50.01
15880;BME280;61999;51.514;14.614;2022-12-18T04:30:13;101715.81;;;-5.99;49.81
15880;BME280;61999;51.514;14.614;2022-12-18T04:32:42;101726.81;;;-6.06;49.96
15880;BME280;61999;51.514;14.614;2022-12-18T04:35:13;101721.47;;;-6.17;49.98
15880;BME280;61999;51.514;14.614;2022-12-18T04:37:41;101728.59;;;-6.02;50.01
15880;BME280;61999;51.514;14.614;2022-12-18T04:40:11;101725.22;;;-5.98;49.36
15880;BME280;61999;51.514;14.614;2022-12-18T04:42:39;101720.25;;;-5.89;49.46
15880;BME280;61999;51.514;14.614;2022-12-18T04:45:08;101730.22;;;-6.07;50.09
15880;BME280;61999;51.514;14.614;2022-12-18T04:47:37;101741.31;;;-6.08;49.97
15880;BME280;61999;51.514;14.614;2022-12-18T04:50:07;101738.91;;;-5.99;49.44
15880;BME280;61999;51.514;14.614;2022-12-18T04:52:36;101751.00;;;-5.94;49.51
15880;BME280;61999;51.514;14.614;2022-12-18T04:55:05;101754.06;;;-7.02;51.83
15880;BME280;61999;51.514;14.614;2022-12-18T04:57:33;101755.22;;;-6.88;52.48
15880;BME280;61999;51.514;14.614;2022-12-18T05:00:02;101748.28;;;-6.92;53.02
15880;BME280;61999;51.514;14.614;2022-12-18T05:02:30;101756.41;;;-7.13;52.32
15880;BME280;61999;51.514;14.614;2022-12-18T05:04:59;101763.75;;;-6.45;51.62
15880;BME280;61999;51.514;14.614;2022-12-18T05:07:29;101760.81;;;-6.65;52.00
15880;BME280;61999;51.514;14.614;2022-12-18T05:09:57;101775.59;;;-8.68;55.87
15880;BME280;61999;51.514;14.614;2022-12-18T05:12:25;101778.66;;;-9.64;61.04
15880;BME280;61999;51.514;14.614;2022-12-18T05:14:53;101771.97;;;-8.13;57.17
15880;BME280;61999;51.514;14.614;2022-12-18T05:17:21;101766.47;;;-7.59;55.17
15880;BME280;61999;51.514;14.614;2022-12-18T05:19:48;101771.59;;;-7.59;54.10
15880;BME280;61999;51.514;14.614;2022-12-18T05:22:17;101769.44;;;-7.42;53.62
15880;BME280;61999;51.514;14.614;2022-12-18T05:24:46;101771.72;;;-8.22;55.37
15880;BME280;61999;51.514;14.614;2022-12-18T05:27:14;101776.09;;;-7.83;55.06
15880;BME280;61999;51.514;14.614;2022-12-18T05:29:42;101775.13;;;-8.83;56.58
15880;BME280;61999;51.514;14.614;2022-12-18T05:32:10;101774.53;;;-8.11;55.94
15880;BME280;61999;51.514;14.614;2022-12-18T05:34:37;101774.16;;;-7.59;54.45
15880;BME280;61999;51.514;14.614;2022-12-18T05:37:05;101767.75;;;-7.40;54.17
15880;BME280;61999;51.514;14.614;2022-12-18T05:39:33;101764.50;;;-6.93;53.04
15880;BME280;61999;51.514;14.614;2022-12-18T05:42:03;101775.25;;;-6.69;52.13
15880;BME280;61999;51.514;14.614;2022-12-18T05:44:30;101775.47;;;-7.38;51.88
15880;BME280;61999;51.514;14.614;2022-12-18T05:46:58;101784.63;;;-7.84;54.28
15880;BME280;61999;51.514;14.614;2022-12-18T05:49:26;101779.59;;;-7.45;53.00
15880;BME280;61999;51.514;14.614;2022-12-18T05:51:55;101780.31;;;-7.13;52.59
15880;BME280;61999;51.514;14.614;2022-12-18T05:54:23;101787.31;;;-7.43;52.33
15880;BME280;61999;51.514;14.614;2022-12-18T05:56:51;101790.63;;;-7.47;53.15
15880;BME280;61999;51.514;14.614;2022-12-18T05:59:26;101785.94;;;-7.29;52.82
15880;BME280;61999;51.514;14.614;2022-12-18T06:01:55;101784.09;;;-7.35;52.83
15880;BME280;61999;51.514;14.614;2022-12-18T06:04:23;101785.06;;;-7.31;52.55
15880;BME280;61999;51.514;14.614;2022-12-18T06:06:51;101790.72;;;-7.43;53.11
15880;BME280;61999;51.514;14.614;2022-12-18T06:09:19;101800.41;;;-7.31;52.59
15880;BME280;61999;51.514;14.614;2022-12-18T06:11:47;101811.94;;;-7.48;52.68
15880;BME280;61999;51.514;14.614;2022-12-18T06:14:15;101805.53;;;-6.93;52.14
15880;BME280;61999;51.514;14.614;2022-12-18T06:16:45;101807.34;;;-7.27;51.30
15880;BME280;61999;51.514;14.614;2022-12-18T06:19:15;101806.75;;;-7.52;52.60
15880;BME280;61999;51.514;14.614;2022-12-18T06:21:43;101812.00;;;-7.80;53.28
15880;BME280;61999;51.514;14.614;2022-12-18T06:24:11;101822.44;;;-7.38;52.74
15880;BME280;61999;51.514;14.614;2022-12-18T06:26:40;101810.69;;;-7.30;52.27
15880;BME280;61999;51.514;14.614;2022-12-18T06:29:08;101815.66;;;-6.99;52.05
15880;BME280;61999;51.514;14.614;2022-12-18T06:31:36;101812.78;;;-6.72;51.33
15880;BME280;61999;51.514;14.614;2022-12-18T06:34:05;101819.88;;;-6.61;50.33
15880;BME280;61999;51.514;14.614;2022-12-18T06:36:33;101829.38;;;-6.55;50.09
15880;BME280;61999;51.514;14.614;2022-12-18T06:39:01;101829.50;;;-6.50;49.76
15880;BME280;61999;51.514;14.614;2022-12-18T06:41:29;101840.50;;;-6.54;49.41
15880;BME280;61999;51.514;14.614;2022-12-18T06:43:57;101843.19;;;-6.48;49.73
15880;BME280;61999;51.514;14.614;2022-12-18T06:46:26;101839.41;;;-6.66;49.79
15880;BME280;61999;51.514;14.614;2022-12-18T06:48:55;101825.72;;;-6.68;49.21
15880;BME280;61999;51.514;14.614;2022-12-18T06:51:24;101820.63;;;-6.66;48.91
15880;BME280;61999;51.514;14.614;2022-12-18T06:53:52;101824.75;;;-6.73;49.05
15880;BME280;61999;51.514;14.614;2022-12-18T06:56:21;101837.69;;;-6.67;49.44
15880;BME280;61999;51.514;14.614;2022-12-18T06:58:50;101837.66;;;-6.68;49.58
15880;BME280;61999;51.514;14.614;2022-12-18T07:01:18;101847.28;;;-7.35;50.54
15880;BME280;61999;51.514;14.614;2022-12-18T07:03:46;101854.03;;;-7.37;50.94
15880;BME280;61999;51.514;14.614;2022-12-18T07:06:17;101854.97;;;-6.97;49.91
15880;BME280;61999;51.514;14.614;2022-12-18T07:08:49;101862.25;;;-6.78;49.80
15880;BME280;61999;51.514;14.614;2022-12-18T07:11:18;101873.16;;;-6.87;49.80
15880;BME280;61999;51.514;14.614;2022-12-18T07:13:46;101886.44;;;-7.04;50.38
15880;BME280;61999;51.514;14.614;2022-12-18T07:16:17;101879.63;;;-7.72;50.66
15880;BME280;61999;51.514;14.614;2022-12-18T07:18:50;101892.75;;;-7.60;51.52
15880;BME280;61999;51.514;14.614;2022-12-18T07:21:20;101889.56;;;-7.84;52.03
15880;BME280;61999;51.514;14.614;2022-12-18T07:23:50;101890.66;;;-7.75;52.26
15880;BME280;61999;51.514;14.614;2022-12-18T07:26:20;101886.38;;;-7.42;50.79
15880;BME280;61999;51.514;14.614;2022-12-18T07:28:49;101874.72;;;-7.31;50.39
15880;BME280;61999;51.514;14.614;2022-12-18T07:31:21;101879.19;;;-7.22;50.41
15880;BME280;61999;51.514;14.614;2022-12-18T07:33:50;101885.91;;;-7.26;50.43
15880;BME280;61999;51.514;14.614;2022-12-18T07:36:19;101885.16;;;-7.22;50.08
15880;BME280;61999;51.514;14.614;2022-12-18T07:38:51;101887.81;;;-7.19;49.40
15880;BME280;61999;51.514;14.614;2022-12-18T07:41:20;101892.84;;;-7.22;49.95
15880;BME280;61999;51.514;14.614;2022-12-18T07:43:48;101899.75;;;-7.19;49.56
15880;BME280;61999;51.514;14.614;2022-12-18T07:46:17;101902.47;;;-7.12;49.41
15880;BME280;61999;51.514;14.614;2022-12-18T07:48:46;101904.97;;;-7.15;49.56
15880;BME280;61999;51.514;14.614;2022-12-18T07:51:14;101902.56;;;-7.09;49.04
15880;BME280;61999;51.514;14.614;2022-12-18T07:53:42;101897.00;;;-7.27;49.81
15880;BME280;61999;51.514;14.614;2022-12-18T07:56:12;101911.81;;;-7.15;49.43
15880;BME280;61999;51.514;14.614;2022-12-18T07:58:58;101908.31;;;-7.17;50.01
15880;BME280;61999;51.514;14.614;2022-12-18T08:01:34;101905.03;;;-7.12;49.48
15880;BME280;61999;51.514;14.614;2022-12-18T08:04:02;101910.28;;;-7.07;49.78
15880;BME280;61999;51.514;14.614;2022-12-18T08:06:31;101901.63;;;-7.12;49.43
15880;BME280;61999;51.514;14.614;2022-12-18T08:08:59;101897.94;;;-7.23;49.82
15880;BME280;61999;51.514;14.614;2022-12-18T08:11:29;101894.34;;;-7.65;51.14
15880;BME280;61999;51.514;14.614;2022-12-18T08:13:58;101894.00;;;-7.77;51.73
15880;BME280;61999;51.514;14.614;2022-12-18T08:16:26;101885.66;;;-7.70;51.42
15880;BME280;61999;51.514;14.614;2022-12-18T08:18:54;101893.66;;;-8.51;53.06
15880;BME280;61999;51.514;14.614;2022-12-18T08:21:26;101900.53;;;-7.88;52.48
15880;BME280;61999;51.514;14.614;2022-12-18T08:23:57;101891.91;;;-7.92;52.72
15880;BME280;61999;51.514;14.614;2022-12-18T08:26:30;101898.06;;;-7.52;51.86
15880;BME280;61999;51.514;14.614;2022-12-18T08:28:59;101893.59;;;-7.26;50.67
15880;BME280;61999;51.514;14.614;2022-12-18T08:31:30;101896.91;;;-7.30;51.25
15880;BME280;61999;51.514;14.614;2022-12-18T08:33:58;101897.16;;;-8.19;51.54
15880;BME280;61999;51.514;14.614;2022-12-18T08:36:26;101897.31;;;-8.99;54.52
15880;BME280;61999;51.514;14.614;2022-12-18T08:38:55;101906.56;;;-8.75;54.20
15880;BME280;61999;51.514;14.614;2022-12-18T08:41:23;101906.47;;;-8.78;54.67
15880;BME280;61999;51.514;14.614;2022-12-18T08:44:00;101899.16;;;-8.07;53.14
15880;BME280;61999;51.514;14.614;2022-12-18T08:46:46;101897.56;;;-7.72;52.16
15880;BME280;61999;51.514;14.614;2022-12-18T08:49:14;101905.13;;;-7.43;51.03
15880;BME280;61999;51.514;14.614;2022-12-18T08:51:42;101895.19;;;-7.31;50.79
15880;BME280;61999;51.514;14.614;2022-12-18T08:54:12;101897.00;;;-7.27;49.86
15880;BME280;61999;51.514;14.614;2022-12-18T08:56:40;101891.19;;;-7.55;50.44
15880;BME280;61999;51.514;14.614;2022-12-18T08:59:09;101898.06;;;-7.19;50.44
15880;BME280;61999;51.514;14.614;2022-12-18T09:01:41;101904.91;;;-7.84;50.49
15880;BME280;61999;51.514;14.614;2022-12-18T09:04:10;101910.09;;;-7.49;50.01
15880;BME280;61999;51.514;14.614;2022-12-18T09:06:38;101907.31;;;-7.24;49.90
15880;BME280;61999;51.514;14.614;2022-12-18T09:09:06;101913.44;;;-7.19;50.12
15880;BME280;61999;51.514;14.614;2022-12-18T09:11:34;101910.94;;;-7.16;49.20
15880;BME280;61999;51.514;14.614;2022-12-18T09:14:02;101911.22;;;-7.03;48.21
15880;BME280;61999;51.514;14.614;2022-12-18T09:16:32;101914.47;;;-7.11;47.88
15880;BME280;61999;51.514;14.614;2022-12-18T09:19:03;101919.22;;;-7.26;48.90
15880;BME280;61999;51.514;14.614;2022-12-18T09:21:34;101919.47;;;-7.17;48.82
15880;BME280;61999;51.514;14.614;2022-12-18T09:24:12;101911.50;;;-7.27;48.07
15880;BME280;61999;51.514;14.614;2022-12-18T09:26:40;101909.03;;;-7.23;48.01
15880;BME280;61999;51.514;14.614;2022-12-18T09:29:08;101907.13;;;-7.32;48.64
15880;BME280;61999;51.514;14.614;2022-12-18T09:31:38;101912.28;;;-7.30;48.94
15880;BME280;61999;51.514;14.614;2022-12-18T09:34:07;101911.47;;;-7.29;48.62
15880;BME280;61999;51.514;14.614;2022-12-18T09:36:35;101917.34;;;-7.33;48.65
15880;BME280;61999;51.514;14.614;2022-12-18T09:39:03;101919.34;;;-7.20;48.73
15880;BME280;61999;51.514;14.614;2022-12-18T09:41:43;101913.84;;;-7.02;49.07
15880;BME280;61999;51.514;14.614;2022-12-18T09:44:21;101917.00;;;-7.12;48.25
15880;BME280;61999;51.514;14.614;2022-12-18T09:47:01;101924.59;;;-7.17;47.87
15880;BME280;61999;51.514;14.614;2022-12-18T09:49:43;101931.66;;;-7.41;49.23
15880;BME280;61999;51.514;14.614;2022-12-18T09:52:18;101929.44;;;-7.61;49.91
15880;BME280;61999;51.514;14.614;2022-12-18T09:54:53;101932.50;;;-7.42;49.62
15880;BME280;61999;51.514;14.614;2022-12-18T09:57:24;101942.41;;;-7.20;49.53
15880;BME280;61999;51.514;14.614;2022-12-18T09:59:58;101929.09;;;-7.07;49.07
15880;BME280;61999;51.514;14.614;2022-12-18T10:02:31;101940.53;;;-6.92;49.11
15880;BME280;61999;51.514;14.614;2022-12-18T10:05:10;101925.44;;;-6.80;48.59
15880;BME280;61999;51.514;14.614;2022-12-18T10:07:53;101930.56;;;-6.80;48.20
15880;BME280;61999;51.514;14.614;2022-12-18T10:10:38;101935.34;;;-6.95;48.88
15880;BME280;61999;51.514;14.614;2022-12-18T10:13:19;101943.44;;;-6.78;48.72
15880;BME280;61999;51.514;14.614;2022-12-18T10:16:07;101937.50;;;-6.76;48.38
15880;BME280;61999;51.514;14.614;2022-12-18T10:19:03;101940.75;;;-6.83;48.27
15880;BME280;61999;51.514;14.614;2022-12-18T10:21:48;101939.94;;;-6.82;48.67
15880;BME280;61999;51.514;14.614;2022-12-18T10:24:31;101927.19;;;-6.79;48.04
15880;BME280;61999;51.514;14.614;2022-12-18T10:27:14;101910.28;;;-6.71;48.11
15880;BME280;61999;51.514;14.614;2022-12-18T10:29:45;101908.06;;;-6.92;49.19
15880;BME280;61999;51.514;14.614;2022-12-18T10:32:16;101899.88;;;-6.77;48.78
15880;BME280;61999;51.514;14.614;2022-12-18T10:34:48;101893.38;;;-6.61;49.07
15880;BME280;61999;51.514;14.614;2022-12-18T10:37:20;101888.44;;;-6.53;48.89
15880;BME280;61999;51.514;14.614;2022-12-18T10:40:09;101897.81;;;-6.54;48.18
15880;BME280;61999;51.514;14.614;2022-12-18T10:42:40;101884.84;;;-6.62;48.39
15880;BME280;61999;51.514;14.614;2022-12-18T10:45:14;101885.53;;;-6.69;48.42
15880;BME280;61999;51.514;14.614;2022-12-18T10:47:45;101872.75;;;-6.66;48.75
15880;BME280;61999;51.514;14.614;2022-12-18T10:50:27;101871.41;;;-6.48;48.17
15880;BME280;61999;51.514;14.614;2022-12-18T10:53:18;101872.03;;;-6.19;48.34
15880;BME280;61999;51.514;14.614;2022-12-18T10:55:47;101867.09;;;-6.08;47.78
15880;BME280;61999;51.514;14.614;2022-12-18T10:58:24;101860.28;;;-6.06;47.74
15880;BME280;61999;51.514;14.614;2022-12-18T11:01:12;101854.75;;;-5.82;47.55
15880;BME280;61999;51.514;14.614;2022-12-18T11:03:44;101852.41;;;-5.68;47.32
15880;BME280;61999;51.514;14.614;2022-12-18T11:06:16;101850.06;;;-5.55;46.94
15880;BME280;61999;51.514;14.614;2022-12-18T11:08:58;101852.72;;;-5.50;46.97
15880;BME280;61999;51.514;14.614;2022-12-18T11:11:28;101862.00;;;-5.58;46.10
15880;BME280;61999;51.514;14.614;2022-12-18T11:14:04;101854.09;;;-5.71;46.08
15880;BME280;61999;51.514;14.614;2022-12-18T11:16:37;101859.19;;;-5.74;45.74
15880;BME280;61999;51.514;14.614;2022-12-18T11:19:32;101837.09;;;-5.62;46.29
15880;BME280;61999;51.514;14.614;2022-12-18T11:22:21;101839.13;;;-5.43;45.84
15880;BME280;61999;51.514;14.614;2022-12-18T11:24:56;101833.81;;;-4.97;45.79
15880;BME280;61999;51.514;14.614;2022-12-18T11:27:49;101825.66;;;-4.66;45.09
15880;BME280;61999;51.514;14.614;2022-12-18T11:30:25;101826.88;;;-4.38;44.76
15880;BME280;61999;51.514;14.614;2022-12-18T11:33:03;101824.72;;;-4.01;42.40
15880;BME280;61999;51.514;14.614;2022-12-18T11:35:42;101810.66;;;-3.37;44.03
15880;BME280;61999;51.514;14.614;2022-12-18T11:38:21;101810.97;;;-2.88;43.01
15880;BME280;61999;51.514;14.614;2022-12-18T11:40:58;101807.72;;;-2.44;41.47
15880;BME280;61999;51.514;14.614;2022-12-18T11:43:33;101810.31;;;-2.38;39.61
15880;BME280;61999;51.514;14.614;2022-12-18T11:46:09;101802.66;;;-2.01;40.10
15880;BME280;61999;51.514;14.614;2022-12-18T11:48:49;101800.94;;;-1.81;37.13
15880;BME280;61999;51.514;14.614;2022-12-18T11:51:28;101798.41;;;-1.61;37.31
15880;BME280;61999;51.514;14.614;2022-12-18T11:54:10;101799.25;;;-1.57;36.85
15880;BME280;61999;51.514;14.614;2022-12-18T11:56:47;101808.75;;;-1.52;36.21
15880;BME280;61999;51.514;14.614;2022-12-18T11:59:24;101806.97;;;-1.13;37.66
15880;BME280;61999;51.514;14.614;2022-12-18T12:02:17;101799.91;;;-0.68;37.72
15880;BME280;61999;51.514;14.614;2022-12-18T12:05:14;101803.38;;;-0.64;34.92
15880;BME280;61999;51.514;14.614;2022-12-18T12:07:56;101786.94;;;-0.65;36.71
15880;BME280;61999;51.514;14.614;2022-12-18T12:10:45;101781.66;;;-0.45;35.39
15880;BME280;61999;51.514;14.614;2022-12-18T12:13:35;101791.50;;;-1.53;35.71
15880;BME280;61999;51.514;14.614;2022-12-18T12:16:17;101785.38;;;-1.06;35.70
15880;BME280;61999;51.514;14.614;2022-12-18T12:19:04;101785.34;;;-0.95;35.13
15880;BME280;61999;51.514;14.614;2022-12-18T12:21:42;101791.44;;;-1.14;34.97
15880;BME280;61999;51.514;14.614;2022-12-18T12:24:32;101795.78;;;-1.32;35.80
15880;BME280;61999;51.514;14.614;2022-12-18T12:27:15;101787.84;;;-0.69;34.72
15880;BME280;61999;51.514;14.614;2022-12-18T12:29:59;101795.38;;;-0.21;34.93
15880;BME280;61999;51.514;14.614;2022-12-18T12:32:57;101802.28;;;-0.20;34.93
15880;BME280;61999;51.514;14.614;2022-12-18T12:35:42;101807.50;;;-0.26;33.79
15880;BME280;61999;51.514;14.614;2022-12-18T12:38:17;101805.53;;;0.06;34.66
15880;BME280;61999;51.514;14.614;2022-12-18T12:40:52;101807.97;;;0.34;33.81
15880;BME280;61999;51.514;14.614;2022-12-18T12:43:37;101807.13;;;0.32;33.39
15880;BME280;61999;51.514;14.614;2022-12-18T12:46:10;101814.06;;;0.27;33.89
15880;BME280;61999;51.514;14.614;2022-12-18T12:48:43;101812.81;;;0.72;32.65
15880;BME280;61999;51.514;14.614;2022-12-18T12:51:19;101813.50;;;0.90;31.92
15880;BME280;61999;51.514;14.614;2022-12-18T12:53:49;101813.16;;;1.22;32.67
15880;BME280;61999;51.514;14.614;2022-12-18T12:56:20;101799.03;;;0.64;32.30
15880;BME280;61999;51.514;14.614;2022-12-18T12:59:02;101806.84;;;0.63;31.80
15880;BME280;61999;51.514;14.614;2022-12-18T13:01:41;101821.88;;;0.22;32.19
15880;BME280;61999;51.514;14.614;2022-12-18T13:04:27;101815.94;;;0.03;32.81
15880;BME280;61999;51.514;14.614;2022-12-18T13:07:03;101822.78;;;0.17;33.14
15880;BME280;61999;51.514;14.614;2022-12-18T13:09:34;101831.75;;;-0.43;32.59